Impacts METAR Board INFO
IDs:

KFLL - Ft Lauderdale-Hollyw, FL, US

Updated at: 0622 UTC 23 Feb 2018
Potential Impact None Slight Moderate High
Time22/18Z 22/19Z 22/20Z 22/21Z 22/22Z 22/23Z 23/00Z 23/01Z 23/02Z 23/03Z 23/04Z 23/05Z 23/06Z
VIS10 10 10 10 10 10 10 10 10 10 10 10 10
CIG75 47 75 -- -- -- -- -- -- 37 70 -- --
CoverBKNBKNBKNSCTSCTFEWFEWSCTFEWBKNOVCSCTSCT
FltCatVFRVFRVFRVFRVFRVFRVFRVFRVFRVFRVFRVFRVFR
WX--------------------------
WDir1101001009070908080909090100110
WSpd16 16 14 13 11 14 12 11 13 14 12 14 12
WGst-- -- -- -- -- -- -- -- -- -- -- -- --
Raw hourly METARs
KFLL 221753Z 11016KT 10SM FEW025 FEW045 BKN075 28/21 A3034 RMK AO2 SLP272 T02780211 10278 20239 58008
KFLL 221853Z 10016KT 10SM FEW027 BKN047 BKN075 26/21 A3032 RMK AO2 SLP267 T02610206
KFLL 221953Z 10014KT 10SM FEW027 FEW049 BKN075 27/21 A3030 RMK AO2 SLP261 T02670211
KFLL 222053Z 09013KT 10SM SCT025 27/21 A3029 RMK AO2 SLP257 T02670206 56015
KFLL 222153Z 07011KT 10SM SCT025 26/21 A3029 RMK AO2 SLP258 T02560206
KFLL 222253Z 09014KT 10SM FEW025 24/20 A3030 RMK AO2 SLP261 T02440200
KFLL 222353Z 08012KT 10SM FEW025 24/21 A3030 RMK AO2 SLP261 T02440206 10278 20244 51004
KFLL 230053Z 08011KT 10SM FEW025 SCT033 24/21 A3031 RMK AO2 SLP264 T02440206
KFLL 230153Z 09013KT 10SM FEW026 FEW043 FEW065 24/20 A3032 RMK AO2 SLP266 T02440200
KFLL 230253Z 09014KT 10SM FEW030 BKN037 24/20 A3032 RMK AO2 SLP268 T02390200 51006
KFLL 230353Z 09012KT 10SM FEW023 SCT047 BKN070 OVC250 24/21 A3031 RMK AO2 SLP265 T02440211
KFLL 230453Z 10014KT 10SM FEW026 SCT037 SCT060 24/21 A3031 RMK AO2 SLP263 T02440206 402780228
KFLL 230553Z 11012KT 10SM FEW026 SCT070 24/20 A3030 RMK AO2 SLP260 T02440200 10244 20239 57008